sensor_id;sensor_type;location;lat;lon;timestamp;temperature;humidity
29353;DHT22;16344;50.364;8.944;2023-03-31T00:00:27;11.40;29.50
29353;DHT22;16344;50.364;8.944;2023-03-31T00:02:53;11.40;34.40
29353;DHT22;16344;50.364;8.944;2023-03-31T00:05:20;11.40;35.30
29353;DHT22;16344;50.364;8.944;2023-03-31T00:07:55;11.40;37.60
29353;DHT22;16344;50.364;8.944;2023-03-31T00:10:27;11.40;41.40
29353;DHT22;16344;50.364;8.944;2023-03-31T00:12:52;11.30;47.10
29353;DHT22;16344;50.364;8.944;2023-03-31T00:15:18;11.30;49.20
29353;DHT22;16344;50.364;8.944;2023-03-31T00:17:44;11.20;49.00
29353;DHT22;16344;50.364;8.944;2023-03-31T00:20:11;11.20;50.60
29353;DHT22;16344;50.364;8.944;2023-03-31T00:22:38;11.20;51.80
29353;DHT22;16344;50.364;8.944;2023-03-31T00:25:08;11.20;51.40
29353;DHT22;16344;50.364;8.944;2023-03-31T00:27:34;11.20;53.80
29353;DHT22;16344;50.364;8.944;2023-03-31T00:29:59;11.20;56.00
29353;DHT22;16344;50.364;8.944;2023-03-31T00:32:25;11.20;58.80
29353;DHT22;16344;50.364;8.944;2023-03-31T00:34:50;11.20;59.00
29353;DHT22;16344;50.364;8.944;2023-03-31T00:37:16;11.30;58.40
29353;DHT22;16344;50.364;8.944;2023-03-31T00:39:42;11.40;57.70
29353;DHT22;16344;50.364;8.944;2023-03-31T00:42:09;11.40;55.60
29353;DHT22;16344;50.364;8.944;2023-03-31T00:47:23;11.50;56.00
29353;DHT22;16344;50.364;8.944;2023-03-31T00:49:54;11.40;54.20
29353;DHT22;16344;50.364;8.944;2023-03-31T00:52:29;11.40;54.80
29353;DHT22;16344;50.364;8.944;2023-03-31T00:55:01;11.40;55.50
29353;DHT22;16344;50.364;8.944;2023-03-31T00:57:29;11.40;56.40
29353;DHT22;16344;50.364;8.944;2023-03-31T01:00:01;11.30;57.90
29353;DHT22;16344;50.364;8.944;2023-03-31T01:02:36;11.30;57.10
29353;DHT22;16344;50.364;8.944;2023-03-31T01:05:05;11.20;59.50
29353;DHT22;16344;50.364;8.944;2023-03-31T01:07:44;11.30;59.20
29353;DHT22;16344;50.364;8.944;2023-03-31T01:10:12;11.30;60.60
29353;DHT22;16344;50.364;8.944;2023-03-31T01:12:39;11.30;58.90
29353;DHT22;16344;50.364;8.944;2023-03-31T01:15:08;11.20;57.30
29353;DHT22;16344;50.364;8.944;2023-03-31T01:17:34;11.20;57.70
29353;DHT22;16344;50.364;8.944;2023-03-31T01:23:14;11.20;61.40
29353;DHT22;16344;50.364;8.944;2023-03-31T01:29:07;11.20;64.20
29353;DHT22;16344;50.364;8.944;2023-03-31T01:40:21;11.20;61.90
29353;DHT22;16344;50.364;8.944;2023-03-31T01:46:01;11.30;55.70
29353;DHT22;16344;50.364;8.944;2023-03-31T01:48:43;11.40;54.00
29353;DHT22;16344;50.364;8.944;2023-03-31T01:51:16;11.40;53.50
29353;DHT22;16344;50.364;8.944;2023-03-31T01:53:59;11.40;51.90
29353;DHT22;16344;50.364;8.944;2023-03-31T01:56:34;11.30;53.00
29353;DHT22;16344;50.364;8.944;2023-03-31T01:59:06;11.40;53.40
29353;DHT22;16344;50.364;8.944;2023-03-31T02:01:33;11.40;52.60
29353;DHT22;16344;50.364;8.944;2023-03-31T02:04:21;11.30;51.40
29353;DHT22;16344;50.364;8.944;2023-03-31T02:06:56;11.20;51.90
29353;DHT22;16344;50.364;8.944;2023-03-31T02:09:28;11.20;53.30
29353;DHT22;16344;50.364;8.944;2023-03-31T02:11:56;11.20;51.40
29353;DHT22;16344;50.364;8.944;2023-03-31T02:14:27;11.20;50.70
29353;DHT22;16344;50.364;8.944;2023-03-31T02:16:56;11.20;51.90
29353;DHT22;16344;50.364;8.944;2023-03-31T02:19:25;11.20;53.10
29353;DHT22;16344;50.364;8.944;2023-03-31T02:21:53;11.20;51.70
29353;DHT22;16344;50.364;8.944;2023-03-31T02:24:23;11.10;56.70
29353;DHT22;16344;50.364;8.944;2023-03-31T02:27:02;11.10;56.50
29353;DHT22;16344;50.364;8.944;2023-03-31T02:29:30;11.10;54.00
29353;DHT22;16344;50.364;8.944;2023-03-31T02:32:03;11.00;56.00
29353;DHT22;16344;50.364;8.944;2023-03-31T02:34:31;10.90;58.00
29353;DHT22;16344;50.364;8.944;2023-03-31T02:36:57;10.90;61.20
29353;DHT22;16344;50.364;8.944;2023-03-31T02:39:25;10.90;61.70
29353;DHT22;16344;50.364;8.944;2023-03-31T02:41:52;10.90;63.00
29353;DHT22;16344;50.364;8.944;2023-03-31T02:44:18;10.90;66.50
29353;DHT22;16344;50.364;8.944;2023-03-31T02:46:45;10.80;66.80
29353;DHT22;16344;50.364;8.944;2023-03-31T02:49:11;10.80;64.00
29353;DHT22;16344;50.364;8.944;2023-03-31T02:52:11;10.80;62.20
29353;DHT22;16344;50.364;8.944;2023-03-31T02:55:01;10.80;61.60
29353;DHT22;16344;50.364;8.944;2023-03-31T02:57:56;10.80;60.80
29353;DHT22;16344;50.364;8.944;2023-03-31T03:03:41;10.70;62.20
29353;DHT22;16344;50.364;8.944;2023-03-31T03:06:40;10.70;62.50
29353;DHT22;16344;50.364;8.944;2023-03-31T03:09:10;10.60;67.20
29353;DHT22;16344;50.364;8.944;2023-03-31T03:12:02;10.60;71.00
29353;DHT22;16344;50.364;8.944;2023-03-31T03:19:42;10.50;72.90
29353;DHT22;16344;50.364;8.944;2023-03-31T03:22:07;10.50;73.50
29353;DHT22;16344;50.364;8.944;2023-03-31T03:24:33;10.60;70.50
29353;DHT22;16344;50.364;8.944;2023-03-31T03:26:59;10.70;69.30
29353;DHT22;16344;50.364;8.944;2023-03-31T03:29:24;10.70;67.90
29353;DHT22;16344;50.364;8.944;2023-03-31T03:31:51;10.80;65.30
29353;DHT22;16344;50.364;8.944;2023-03-31T03:34:17;10.70;62.30
29353;DHT22;16344;50.364;8.944;2023-03-31T03:36:45;10.70;59.30
29353;DHT22;16344;50.364;8.944;2023-03-31T03:39:10;10.70;63.90
29353;DHT22;16344;50.364;8.944;2023-03-31T03:41:36;10.60;66.40
29353;DHT22;16344;50.364;8.944;2023-03-31T03:44:02;10.60;66.30
29353;DHT22;16344;50.364;8.944;2023-03-31T03:46:28;10.60;68.90
29353;DHT22;16344;50.364;8.944;2023-03-31T03:48:53;10.60;68.50
29353;DHT22;16344;50.364;8.944;2023-03-31T03:51:20;10.60;68.00
29353;DHT22;16344;50.364;8.944;2023-03-31T03:53:45;10.60;69.60
29353;DHT22;16344;50.364;8.944;2023-03-31T03:56:11;10.60;70.30
29353;DHT22;16344;50.364;8.944;2023-03-31T03:58:36;10.70;72.10
29353;DHT22;16344;50.364;8.944;2023-03-31T04:01:02;10.70;71.90
29353;DHT22;16344;50.364;8.944;2023-03-31T04:03:28;10.60;74.40
29353;DHT22;16344;50.364;8.944;2023-03-31T04:05:54;10.50;77.00
29353;DHT22;16344;50.364;8.944;2023-03-31T04:08:19;10.50;79.50
29353;DHT22;16344;50.364;8.944;2023-03-31T04:10:46;10.50;82.50
29353;DHT22;16344;50.364;8.944;2023-03-31T04:13:14;10.60;79.30
29353;DHT22;16344;50.364;8.944;2023-03-31T04:15:39;10.60;77.80
29353;DHT22;16344;50.364;8.944;2023-03-31T04:18:05;10.60;77.00
29353;DHT22;16344;50.364;8.944;2023-03-31T04:20:30;10.60;74.20
29353;DHT22;16344;50.364;8.944;2023-03-31T04:22:56;10.50;73.60
29353;DHT22;16344;50.364;8.944;2023-03-31T04:25:22;10.60;74.50
29353;DHT22;16344;50.364;8.944;2023-03-31T04:27:50;10.50;71.90
29353;DHT22;16344;50.364;8.944;2023-03-31T04:30:23;10.60;72.20
29353;DHT22;16344;50.364;8.944;2023-03-31T04:32:54;10.60;69.20
29353;DHT22;16344;50.364;8.944;2023-03-31T04:35:22;10.70;66.60
29353;DHT22;16344;50.364;8.944;2023-03-31T04:37:49;10.60;66.00
29353;DHT22;16344;50.364;8.944;2023-03-31T04:40:15;10.70;64.20
29353;DHT22;16344;50.364;8.944;2023-03-31T04:42:42;10.60;59.00
29353;DHT22;16344;50.364;8.944;2023-03-31T04:45:08;10.60;60.00
29353;DHT22;16344;50.364;8.944;2023-03-31T04:47:34;10.70;58.80
29353;DHT22;16344;50.364;8.944;2023-03-31T04:49:59;10.70;58.80
29353;DHT22;16344;50.364;8.944;2023-03-31T04:52:25;10.60;57.30
29353;DHT22;16344;50.364;8.944;2023-03-31T04:54:50;10.60;58.60
29353;DHT22;16344;50.364;8.944;2023-03-31T04:57:16;10.60;59.40
29353;DHT22;16344;50.364;8.944;2023-03-31T04:59:41;10.60;63.20
29353;DHT22;16344;50.364;8.944;2023-03-31T05:02:07;10.70;62.40
29353;DHT22;16344;50.364;8.944;2023-03-31T05:04:33;10.60;62.20
29353;DHT22;16344;50.364;8.944;2023-03-31T05:06:58;10.60;63.20
29353;DHT22;16344;50.364;8.944;2023-03-31T05:09:24;10.60;64.40
29353;DHT22;16344;50.364;8.944;2023-03-31T05:11:50;10.70;64.70
29353;DHT22;16344;50.364;8.944;2023-03-31T05:14:15;10.70;60.80
29353;DHT22;16344;50.364;8.944;2023-03-31T05:16:41;10.60;62.70
29353;DHT22;16344;50.364;8.944;2023-03-31T05:19:07;10.50;63.20
29353;DHT22;16344;50.364;8.944;2023-03-31T05:21:33;10.60;62.50
29353;DHT22;16344;50.364;8.944;2023-03-31T05:23:58;10.60;60.80
29353;DHT22;16344;50.364;8.944;2023-03-31T05:26:24;10.60;62.30
29353;DHT22;16344;50.364;8.944;2023-03-31T05:28:53;10.60;63.20
29353;DHT22;16344;50.364;8.944;2023-03-31T05:31:19;10.50;61.50
29353;DHT22;16344;50.364;8.944;2023-03-31T05:33:44;10.50;65.10
29353;DHT22;16344;50.364;8.944;2023-03-31T05:36:12;10.50;67.10
29353;DHT22;16344;50.364;8.944;2023-03-31T05:38:39;10.60;69.10
29353;DHT22;16344;50.364;8.944;2023-03-31T05:41:05;10.60;66.10
29353;DHT22;16344;50.364;8.944;2023-03-31T05:43:33;10.60;65.60
29353;DHT22;16344;50.364;8.944;2023-03-31T05:45:59;10.60;67.00
29353;DHT22;16344;50.364;8.944;2023-03-31T05:48:25;10.60;69.00
29353;DHT22;16344;50.364;8.944;2023-03-31T05:50:50;10.60;70.80
29353;DHT22;16344;50.364;8.944;2023-03-31T05:53:16;10.50;72.00
29353;DHT22;16344;50.364;8.944;2023-03-31T05:55:41;10.50;70.60
29353;DHT22;16344;50.364;8.944;2023-03-31T05:58:07;10.50;70.80
29353;DHT22;16344;50.364;8.944;2023-03-31T06:00:33;10.50;71.80
29353;DHT22;16344;50.364;8.944;2023-03-31T06:03:00;10.50;74.80
29353;DHT22;16344;50.364;8.944;2023-03-31T06:05:25;10.50;75.30
29353;DHT22;16344;50.364;8.944;2023-03-31T06:07:52;10.50;74.20
29353;DHT22;16344;50.364;8.944;2023-03-31T06:10:18;10.50;72.90
29353;DHT22;16344;50.364;8.944;2023-03-31T06:12:44;10.40;74.00
29353;DHT22;16344;50.364;8.944;2023-03-31T06:15:10;10.50;76.00
29353;DHT22;16344;50.364;8.944;2023-03-31T06:17:35;10.50;77.10
29353;DHT22;16344;50.364;8.944;2023-03-31T06:20:01;10.40;80.20
29353;DHT22;16344;50.364;8.944;2023-03-31T06:22:27;10.50;80.70
29353;DHT22;16344;50.364;8.944;2023-03-31T06:24:52;10.50;81.30
29353;DHT22;16344;50.364;8.944;2023-03-31T06:27:18;10.50;80.00
29353;DHT22;16344;50.364;8.944;2023-03-31T06:29:43;10.50;78.70
29353;DHT22;16344;50.364;8.944;2023-03-31T06:32:09;10.40;82.20
29353;DHT22;16344;50.364;8.944;2023-03-31T06:34:34;10.30;87.00
29353;DHT22;16344;50.364;8.944;2023-03-31T06:36:59;10.30;85.60
29353;DHT22;16344;50.364;8.944;2023-03-31T06:39:25;10.30;86.10
29353;DHT22;16344;50.364;8.944;2023-03-31T06:41:51;10.30;88.50
29353;DHT22;16344;50.364;8.944;2023-03-31T06:44:16;10.20;89.70
29353;DHT22;16344;50.364;8.944;2023-03-31T06:46:43;10.20;91.40
29353;DHT22;16344;50.364;8.944;2023-03-31T06:49:09;10.10;92.50
29353;DHT22;16344;50.364;8.944;2023-03-31T06:51:34;10.10;93.10
29353;DHT22;16344;50.364;8.944;2023-03-31T06:54:00;10.00;94.60
29353;DHT22;16344;50.364;8.944;2023-03-31T06:56:25;10.00;95.50
29353;DHT22;16344;50.364;8.944;2023-03-31T06:58:52;9.90;96.10
29353;DHT22;16344;50.364;8.944;2023-03-31T07:01:17;9.90;96.70
29353;DHT22;16344;50.364;8.944;2023-03-31T07:03:43;9.90;97.10
29353;DHT22;16344;50.364;8.944;2023-03-31T07:06:09;9.90;97.20
29353;DHT22;16344;50.364;8.944;2023-03-31T07:08:34;9.90;97.10
29353;DHT22;16344;50.364;8.944;2023-03-31T07:11:00;9.90;97.90
29353;DHT22;16344;50.364;8.944;2023-03-31T07:13:26;9.90;97.60
29353;DHT22;16344;50.364;8.944;2023-03-31T07:15:53;9.90;97.70
29353;DHT22;16344;50.364;8.944;2023-03-31T07:18:19;9.90;97.40
29353;DHT22;16344;50.364;8.944;2023-03-31T07:20:47;9.90;97.10
29353;DHT22;16344;50.364;8.944;2023-03-31T07:23:14;9.90;97.50
29353;DHT22;16344;50.364;8.944;2023-03-31T07:25:39;9.90;97.10
29353;DHT22;16344;50.364;8.944;2023-03-31T07:28:05;9.90;95.40
29353;DHT22;16344;50.364;8.944;2023-03-31T07:30:31;10.00;94.70
29353;DHT22;16344;50.364;8.944;2023-03-31T07:32:57;10.00;94.60
29353;DHT22;16344;50.364;8.944;2023-03-31T07:35:22;10.00;94.80
29353;DHT22;16344;50.364;8.944;2023-03-31T07:37:48;10.10;92.40
29353;DHT22;16344;50.364;8.944;2023-03-31T07:40:20;10.10;92.10
29353;DHT22;16344;50.364;8.944;2023-03-31T07:42:46;10.10;91.20
29353;DHT22;16344;50.364;8.944;2023-03-31T07:45:14;10.10;91.70
29353;DHT22;16344;50.364;8.944;2023-03-31T07:47:39;10.20;91.20
29353;DHT22;16344;50.364;8.944;2023-03-31T07:50:06;10.30;91.00
29353;DHT22;16344;50.364;8.944;2023-03-31T07:52:32;10.30;88.80
29353;DHT22;16344;50.364;8.944;2023-03-31T07:54:57;10.30;89.30
29353;DHT22;16344;50.364;8.944;2023-03-31T07:57:23;10.40;90.10
29353;DHT22;16344;50.364;8.944;2023-03-31T07:59:48;10.30;88.90
29353;DHT22;16344;50.364;8.944;2023-03-31T08:02:15;10.30;90.50
29353;DHT22;16344;50.364;8.944;2023-03-31T08:04:42;10.30;92.00
29353;DHT22;16344;50.364;8.944;2023-03-31T08:07:09;10.20;92.60
29353;DHT22;16344;50.364;8.944;2023-03-31T08:09:35;10.10;94.20
29353;DHT22;16344;50.364;8.944;2023-03-31T08:12:00;10.10;94.80
29353;DHT22;16344;50.364;8.944;2023-03-31T08:14:26;10.20;95.10
29353;DHT22;16344;50.364;8.944;2023-03-31T08:16:51;10.30;94.60
29353;DHT22;16344;50.364;8.944;2023-03-31T08:19:20;10.50;93.90
29353;DHT22;16344;50.364;8.944;2023-03-31T08:21:45;10.70;93.80
29353;DHT22;16344;50.364;8.944;2023-03-31T08:24:11;10.80;92.30
29353;DHT22;16344;50.364;8.944;2023-03-31T08:26:36;11.00;91.10
29353;DHT22;16344;50.364;8.944;2023-03-31T08:29:02;11.10;85.90
29353;DHT22;16344;50.364;8.944;2023-03-31T08:31:28;11.20;79.20
29353;DHT22;16344;50.364;8.944;2023-03-31T08:33:54;11.30;75.10
29353;DHT22;16344;50.364;8.944;2023-03-31T08:36:20;11.30;73.10
29353;DHT22;16344;50.364;8.944;2023-03-31T08:38:46;11.40;81.00
29353;DHT22;16344;50.364;8.944;2023-03-31T08:44:14;11.40;89.50
29353;DHT22;16344;50.364;8.944;2023-03-31T08:46:40;11.40;88.90
29353;DHT22;16344;50.364;8.944;2023-03-31T08:49:06;11.30;89.60
29353;DHT22;16344;50.364;8.944;2023-03-31T08:51:40;11.40;88.70
29353;DHT22;16344;50.364;8.944;2023-03-31T08:54:15;11.40;85.40
29353;DHT22;16344;50.364;8.944;2023-03-31T08:56:44;11.60;90.30
29353;DHT22;16344;50.364;8.944;2023-03-31T08:59:38;11.70;84.50
29353;DHT22;16344;50.364;8.944;2023-03-31T09:05:12;11.90;75.90
29353;DHT22;16344;50.364;8.944;2023-03-31T09:18:32;12.90;55.40
29353;DHT22;16344;50.364;8.944;2023-03-31T09:21:22;12.80;50.30
29353;DHT22;16344;50.364;8.944;2023-03-31T09:26:42;12.70;50.40
29353;DHT22;16344;50.364;8.944;2023-03-31T09:29:15;12.70;49.80
29353;DHT22;16344;50.364;8.944;2023-03-31T09:31:43;12.70;47.20
29353;DHT22;16344;50.364;8.944;2023-03-31T09:34:15;12.80;51.10
29353;DHT22;16344;50.364;8.944;2023-03-31T09:36:42;12.80;46.90
29353;DHT22;16344;50.364;8.944;2023-03-31T09:39:12;12.90;49.90
29353;DHT22;16344;50.364;8.944;2023-03-31T09:41:42;12.90;49.50
29353;DHT22;16344;50.364;8.944;2023-03-31T09:44:24;13.00;52.10
29353;DHT22;16344;50.364;8.944;2023-03-31T09:46:50;13.20;28.50
29353;DHT22;16344;50.364;8.944;2023-03-31T09:49:22;13.30;29.50
29353;DHT22;16344;50.364;8.944;2023-03-31T09:54:48;13.50;11.60
29353;DHT22;16344;50.364;8.944;2023-03-31T09:57:24;13.70;31.40
29353;DHT22;16344;50.364;8.944;2023-03-31T09:59:51;14.10;25.80
29353;DHT22;16344;50.364;8.944;2023-03-31T10:04:45;14.50;1.00
29353;DHT22;16344;50.364;8.944;2023-03-31T10:07:11;14.50;1.00
29353;DHT22;16344;50.364;8.944;2023-03-31T10:09:38;14.50;1.00
29353;DHT22;16344;50.364;8.944;2023-03-31T10:12:06;14.20;1.00
29353;DHT22;16344;50.364;8.944;2023-03-31T10:14:53;14.00;1.00
29353;DHT22;16344;50.364;8.944;2023-03-31T10:17:22;13.90;1.00
29353;DHT22;16344;50.364;8.944;2023-03-31T10:19:50;14.00;1.00
29353;DHT22;16344;50.364;8.944;2023-03-31T10:22:26;13.90;1.00
29353;DHT22;16344;50.364;8.944;2023-03-31T10:24:52;14.10;1.00
29353;DHT22;16344;50.364;8.944;2023-03-31T10:27:27;14.30;1.00
29353;DHT22;16344;50.364;8.944;2023-03-31T10:30:00;14.30;1.00
29353;DHT22;16344;50.364;8.944;2023-03-31T10:32:29;14.20;1.00
29353;DHT22;16344;50.364;8.944;2023-03-31T10:34:57;14.10;1.00
29353;DHT22;16344;50.364;8.944;2023-03-31T10:37:25;13.80;1.00
29353;DHT22;16344;50.364;8.944;2023-03-31T10:40:00;13.50;1.00
29353;DHT22;16344;50.364;8.944;2023-03-31T10:42:26;13.40;1.00
29353;DHT22;16344;50.364;8.944;2023-03-31T10:45:28;13.30;1.00
29353;DHT22;16344;50.364;8.944;2023-03-31T10:47:58;13.30;1.00
29353;DHT22;16344;50.364;8.944;2023-03-31T10:50:31;13.30;1.00
29353;DHT22;16344;50.364;8.944;2023-03-31T10:53:05;13.30;1.00
29353;DHT22;16344;50.364;8.944;2023-03-31T10:55:41;13.20;1.00
29353;DHT22;16344;50.364;8.944;2023-03-31T11:01:41;12.80;27.80
29353;DHT22;16344;50.364;8.944;2023-03-31T11:04:15;12.50;26.70
29353;DHT22;16344;50.364;8.944;2023-03-31T11:12:17;11.40;32.50
29353;DHT22;16344;50.364;8.944;2023-03-31T11:14:57;11.30;41.80
29353;DHT22;16344;50.364;8.944;2023-03-31T11:23:33;11.30;54.80
29353;DHT22;16344;50.364;8.944;2023-03-31T11:26:06;11.40;53.10
29353;DHT22;16344;50.364;8.944;2023-03-31T11:28:57;11.60;52.50
29353;DHT22;16344;50.364;8.944;2023-03-31T11:39:38;12.40;26.70
29353;DHT22;16344;50.364;8.944;2023-03-31T11:42:14;12.60;35.60
29353;DHT22;16344;50.364;8.944;2023-03-31T11:44:45;12.90;33.00
29353;DHT22;16344;50.364;8.944;2023-03-31T11:47:16;12.90;12.60
29353;DHT22;16344;50.364;8.944;2023-03-31T11:53:06;13.30;15.00
29353;DHT22;16344;50.364;8.944;2023-03-31T11:55:38;13.50;25.60
29353;DHT22;16344;50.364;8.944;2023-03-31T11:58:15;13.80;24.10
29353;DHT22;16344;50.364;8.944;2023-03-31T12:00:45;13.90;5.20
29353;DHT22;16344;50.364;8.944;2023-03-31T12:03:38;14.20;17.40
29353;DHT22;16344;50.364;8.944;2023-03-31T12:06:12;14.50;1.00
29353;DHT22;16344;50.364;8.944;2023-03-31T12:09:18;14.40;1.00
29353;DHT22;16344;50.364;8.944;2023-03-31T12:17:14;13.90;1.00
29353;DHT22;16344;50.364;8.944;2023-03-31T12:19:47;13.70;1.00
29353;DHT22;16344;50.364;8.944;2023-03-31T12:22:21;13.40;1.00
29353;DHT22;16344;50.364;8.944;2023-03-31T12:24:48;13.30;1.00
29353;DHT22;16344;50.364;8.944;2023-03-31T12:27:26;13.30;1.00
29353;DHT22;16344;50.364;8.944;2023-03-31T12:30:03;13.40;1.00
29353;DHT22;16344;50.364;8.944;2023-03-31T12:32:33;13.50;1.00
29353;DHT22;16344;50.364;8.944;2023-03-31T12:46:19;13.30;1.00
29353;DHT22;16344;50.364;8.944;2023-03-31T12:56:12;13.00;7.00
29353;DHT22;16344;50.364;8.944;2023-03-31T12:58:40;13.00;21.70
29353;DHT22;16344;50.364;8.944;2023-03-31T13:01:11;13.00;15.70
29353;DHT22;16344;50.364;8.944;2023-03-31T13:09:05;12.90;29.90
29353;DHT22;16344;50.364;8.944;2023-03-31T13:11:40;13.00;28.10
29353;DHT22;16344;50.364;8.944;2023-03-31T13:14:27;13.40;34.80
29353;DHT22;16344;50.364;8.944;2023-03-31T13:17:23;13.60;31.80
29353;DHT22;16344;50.364;8.944;2023-03-31T13:19:50;13.90;1.90
29353;DHT22;16344;50.364;8.944;2023-03-31T13:22:33;14.10;3.50
29353;DHT22;16344;50.364;8.944;2023-03-31T13:27:53;14.30;20.30
29353;DHT22;16344;50.364;8.944;2023-03-31T13:35:38;14.30;1.00
29353;DHT22;16344;50.364;8.944;2023-03-31T13:38:11;14.30;1.00
29353;DHT22;16344;50.364;8.944;2023-03-31T13:43:43;14.20;1.00
29353;DHT22;16344;50.364;8.944;2023-03-31T13:48:43;13.90;1.00
29353;DHT22;16344;50.364;8.944;2023-03-31T13:57:37;14.00;1.00
29353;DHT22;16344;50.364;8.944;2023-03-31T14:00:15;14.00;1.00
29353;DHT22;16344;50.364;8.944;2023-03-31T14:02:52;14.10;1.00
29353;DHT22;16344;50.364;8.944;2023-03-31T14:05:32;14.30;1.00
29353;DHT22;16344;50.364;8.944;2023-03-31T14:10:32;14.40;99.90
29353;DHT22;16344;50.364;8.944;2023-03-31T14:13:15;14.40;1.00
29353;DHT22;16344;50.364;8.944;2023-03-31T14:15:51;14.50;1.00
29353;DHT22;16344;50.364;8.944;2023-03-31T14:18:29;14.60;1.00
29353;DHT22;16344;50.364;8.944;2023-03-31T14:23:38;14.50;1.00
29353;DHT22;16344;50.364;8.944;2023-03-31T14:31:36;14.20;1.00
29353;DHT22;16344;50.364;8.944;2023-03-31T14:37:13;14.20;1.00
29353;DHT22;16344;50.364;8.944;2023-03-31T14:40:00;14.20;1.00
29353;DHT22;16344;50.364;8.944;2023-03-31T14:42:41;14.00;1.00
29353;DHT22;16344;50.364;8.944;2023-03-31T14:45:25;13.70;1.00
29353;DHT22;16344;50.364;8.944;2023-03-31T14:47:58;13.60;1.00
29353;DHT22;16344;50.364;8.944;2023-03-31T14:50:29;13.50;1.00
29353;DHT22;16344;50.364;8.944;2023-03-31T14:52:55;13.50;1.00
29353;DHT22;16344;50.364;8.944;2023-03-31T14:55:27;13.30;1.00
29353;DHT22;16344;50.364;8.944;2023-03-31T14:57:55;13.30;1.00
29353;DHT22;16344;50.364;8.944;2023-03-31T15:00:26;13.30;1.00
29353;DHT22;16344;50.364;8.944;2023-03-31T15:02:53;13.30;1.00
29353;DHT22;16344;50.364;8.944;2023-03-31T15:07:54;13.30;1.00
29353;DHT22;16344;50.364;8.944;2023-03-31T15:10:21;13.20;1.00
29353;DHT22;16344;50.364;8.944;2023-03-31T15:12:48;13.20;1.00
29353;DHT22;16344;50.364;8.944;2023-03-31T15:15:14;13.20;1.00
29353;DHT22;16344;50.364;8.944;2023-03-31T15:17:42;13.10;1.00
29353;DHT22;16344;50.364;8.944;2023-03-31T15:20:30;13.00;1.00
29353;DHT22;16344;50.364;8.944;2023-03-31T15:22:57;13.00;1.00
29353;DHT22;16344;50.364;8.944;2023-03-31T15:25:39;13.00;1.00
29353;DHT22;16344;50.364;8.944;2023-03-31T15:28:09;13.00;1.00
29353;DHT22;16344;50.364;8.944;2023-03-31T15:30:36;13.00;1.00
29353;DHT22;16344;50.364;8.944;2023-03-31T15:33:06;13.00;1.00
29353;DHT22;16344;50.364;8.944;2023-03-31T15:35:34;13.00;1.00
29353;DHT22;16344;50.364;8.944;2023-03-31T15:38:02;12.90;1.00
29353;DHT22;16344;50.364;8.944;2023-03-31T15:40:39;12.80;1.00
29353;DHT22;16344;50.364;8.944;2023-03-31T15:43:15;12.80;1.00
29353;DHT22;16344;50.364;8.944;2023-03-31T15:45:54;12.70;1.00
29353;DHT22;16344;50.364;8.944;2023-03-31T15:48:50;12.70;1.00
29353;DHT22;16344;50.364;8.944;2023-03-31T15:51:29;12.60;1.00
29353;DHT22;16344;50.364;8.944;2023-03-31T15:53:55;12.60;1.00
29353;DHT22;16344;50.364;8.944;2023-03-31T15:59:28;12.50;1.00
29353;DHT22;16344;50.364;8.944;2023-03-31T16:01:55;12.20;5.30
29353;DHT22;16344;50.364;8.944;2023-03-31T16:04:22;12.00;1.00
29353;DHT22;16344;50.364;8.944;2023-03-31T16:06:50;12.00;7.30
29353;DHT22;16344;50.364;8.944;2023-03-31T16:09:20;11.90;14.70
29353;DHT22;16344;50.364;8.944;2023-03-31T16:11:55;11.90;16.20
29353;DHT22;16344;50.364;8.944;2023-03-31T16:14:24;11.90;16.60
29353;DHT22;16344;50.364;8.944;2023-03-31T16:17:00;11.90;11.00
29353;DHT22;16344;50.364;8.944;2023-03-31T16:19:28;11.90;8.40
29353;DHT22;16344;50.364;8.944;2023-03-31T16:21:57;11.90;11.70
29353;DHT22;16344;50.364;8.944;2023-03-31T16:24:31;12.00;7.60
29353;DHT22;16344;50.364;8.944;2023-03-31T16:27:02;12.10;1.00
29353;DHT22;16344;50.364;8.944;2023-03-31T16:29:35;12.00;1.00
29353;DHT22;16344;50.364;8.944;2023-03-31T16:32:17;12.00;1.00
29353;DHT22;16344;50.364;8.944;2023-03-31T16:35:00;12.00;1.00
29353;DHT22;16344;50.364;8.944;2023-03-31T16:37:27;12.00;1.00
29353;DHT22;16344;50.364;8.944;2023-03-31T16:39:53;12.00;1.00
29353;DHT22;16344;50.364;8.944;2023-03-31T16:42:19;12.00;1.00
29353;DHT22;16344;50.364;8.944;2023-03-31T16:44:45;12.00;1.00
29353;DHT22;16344;50.364;8.944;2023-03-31T16:47:11;12.00;1.00
29353;DHT22;16344;50.364;8.944;2023-03-31T16:49:37;12.10;1.00
29353;DHT22;16344;50.364;8.944;2023-03-31T16:52:03;12.00;1.00
29353;DHT22;16344;50.364;8.944;2023-03-31T16:54:29;12.00;1.00
29353;DHT22;16344;50.364;8.944;2023-03-31T16:56:55;11.90;1.00
29353;DHT22;16344;50.364;8.944;2023-03-31T16:59:22;11.80;6.80
29353;DHT22;16344;50.364;8.944;2023-03-31T17:01:47;11.80;16.50
29353;DHT22;16344;50.364;8.944;2023-03-31T17:04:13;11.80;20.80
29353;DHT22;16344;50.364;8.944;2023-03-31T17:06:39;11.70;13.30
29353;DHT22;16344;50.364;8.944;2023-03-31T17:09:04;11.60;13.50
29353;DHT22;16344;50.364;8.944;2023-03-31T17:11:30;11.70;15.20
29353;DHT22;16344;50.364;8.944;2023-03-31T17:13:55;11.60;24.60
29353;DHT22;16344;50.364;8.944;2023-03-31T17:16:21;11.60;24.70
29353;DHT22;16344;50.364;8.944;2023-03-31T17:18:47;11.70;24.70
29353;DHT22;16344;50.364;8.944;2023-03-31T17:21:14;11.60;32.90
29353;DHT22;16344;50.364;8.944;2023-03-31T17:23:42;11.60;36.00
29353;DHT22;16344;50.364;8.944;2023-03-31T17:26:08;11.50;43.30
29353;DHT22;16344;50.364;8.944;2023-03-31T17:28:34;11.40;44.10
29353;DHT22;16344;50.364;8.944;2023-03-31T17:31:00;11.50;49.30
29353;DHT22;16344;50.364;8.944;2023-03-31T17:33:26;11.40;50.50
29353;DHT22;16344;50.364;8.944;2023-03-31T17:35:58;11.40;47.80
29353;DHT22;16344;50.364;8.944;2023-03-31T17:38:27;11.40;49.80
29353;DHT22;16344;50.364;8.944;2023-03-31T17:40:53;11.40;60.80
29353;DHT22;16344;50.364;8.944;2023-03-31T17:43:19;11.40;52.50
29353;DHT22;16344;50.364;8.944;2023-03-31T17:45:44;11.40;53.40
29353;DHT22;16344;50.364;8.944;2023-03-31T17:48:10;11.40;56.60
29353;DHT22;16344;50.364;8.944;2023-03-31T17:50:36;11.40;54.70
29353;DHT22;16344;50.364;8.944;2023-03-31T17:53:02;11.40;58.60
29353;DHT22;16344;50.364;8.944;2023-03-31T17:55:34;11.30;60.10
29353;DHT22;16344;50.364;8.944;2023-03-31T17:57:59;11.30;60.90
29353;DHT22;16344;50.364;8.944;2023-03-31T18:00:25;11.30;57.20
29353;DHT22;16344;50.364;8.944;2023-03-31T18:02:51;11.30;53.00
29353;DHT22;16344;50.364;8.944;2023-03-31T18:05:19;11.20;56.30
29353;DHT22;16344;50.364;8.944;2023-03-31T18:07:44;11.20;61.00
29353;DHT22;16344;50.364;8.944;2023-03-31T18:10:10;11.20;63.50
29353;DHT22;16344;50.364;8.944;2023-03-31T18:12:36;11.20;63.70
29353;DHT22;16344;50.364;8.944;2023-03-31T18:15:03;11.20;67.70
29353;DHT22;16344;50.364;8.944;2023-03-31T18:17:30;11.20;66.20
29353;DHT22;16344;50.364;8.944;2023-03-31T18:19:55;11.10;66.20